Nearby METAR Reports

 

KSPW - Spencer, Iowa, USA
Distance from station: SSW 15mi, 24km
Updated: Fri, 10/23/2020 4:53am CDT
Overcast
Overcast
 Wind from NNW
Wind: NNW 16 mph , 26 km/h, Gust: 26 mph , 43 km/h
Temperature: 36°F , 2°C
Wind Chill: 26°F , -3°C
Dew Point: 30°F , -1°C
Humidity: 81%
Barometer: 30.18 inHg , 1022 hPa
Clouds: Overcast
Visibility: 10 miles , 16 km
Cloud details: Overcast 1000 ft
2020/10/23 09:53 KSPW 230953Z AUTO 34014G23KT 10SM OVC010 02/M01 A3018 RMK AO2 PK WND 35026/0930 CIG 008V012 SLP234 T00171006
KEST - Estherville, Iowa, USA
Distance from station: E 20mi, 32km
Updated: Fri, 10/23/2020 4:52am CDT
Overcast
Overcast
 Wind from N
Wind: N 20 mph , 31 km/h, Gust: 30 mph , 48 km/h
Temperature: 30°F , -1°C
Wind Chill: 17°F , -8°C
Dew Point: 30°F , -1°C
Humidity: 100%
Barometer: 30.16 inHg , 1021.3 hPa
Clouds: Overcast
Visibility: 10 miles , 16 km
Cloud details: Overcast 800 ft
2020/10/23 09:52 KEST 230952Z AUTO 35017G26KT 10SM OVC008 M01/M01 A3016 RMK AO2 PK WND 35026/0941 SLP230 T10061006
 
KMJQ - Jackson Muni, Minnesota, USA
Distance from station: NNE 20mi, 32km
Updated: Fri, 10/23/2020 5:15am CDT
Overcast
Overcast
 Wind from NNW
Wind: NNW 3 mph , 6 km/h
Temperature: 32°F , 0°C
Dew Point: 30°F , -1°C
Humidity: 93%
Barometer: 30.19 inHg , 1022.4 hPa
Clouds: Overcast
Visibility: 5 miles , 8 km
Cloud details: Overcast 700 ft
2020/10/23 10:15 KMJQ 231015Z AUTO 34003KT 5SM OVC007 00/M01 A3019 RMK AO2 PWINO
KOTG - Worthington, Minnesota, USA
Distance from station: NW 27mi, 44km
Updated: Fri, 10/23/2020 4:56am CDT
Light snow, Overcast
Light snow, Overcast
 Wind from N
Wind: N 22 mph , 35 km/h, Gust: 29 mph , 46 km/h
Temperature: 30°F , -1°C
Wind Chill: 17°F , -8°C
Dew Point: 30°F , -1°C
Humidity: 100%
Barometer: 30.22 inHg , 1023.4 hPa
Summary: Light Snow
Clouds: Overcast
Visibility: 9 miles , 14 km
Cloud details: Overcast 800 ft
2020/10/23 09:56 KOTG 230956Z AUTO 35019G25KT 9SM -SN OVC008 M01/M01 A3022 RMK AO2 PK WND 34026/0940 SLP256 P0000 T10111011 FZRANO
 
KSHL - Sheldon, Iowa, USA
Distance from station: WSW 35mi, 57km
Updated: Fri, 10/23/2020 5:15am CDT
Light snow, Overcast
Light snow, Overcast
 Wind from N
Wind: N 17 mph , 28 km/h, Gust: 24 mph , 39 km/h
Temperature: 32°F , 0°C
Wind Chill: 21°F , -6°C
Dew Point: 32°F , 0°C
Humidity: 100%
Barometer: 30.21 inHg , 1023 hPa
Summary: Light Snow
Clouds: Overcast
Visibility: 9 miles , 14 km
Cloud details: Overcast 1100 ft
2020/10/23 10:15 KSHL 231015Z AUTO 35015G21KT 9SM -SN OVC011 00/M00 A3021 RMK AO2
KMWM - Windom Muni Airp, Minnesota, USA
Distance from station: N 36mi, 58km
Updated: Fri, 10/23/2020 5:15am CDT
Light snow, Overcast
Light snow, Overcast
 Wind from calm
Wind: Calm
Temperature: 30°F , -1°C
Dew Point: 30°F , -1°C
Humidity: 100%
Barometer: 30.20 inHg , 1022.7 hPa
Summary: Light Snow
Clouds: Overcast
Visibility: 4 miles , 6 km
Cloud details: Overcast 800 ft
2020/10/23 10:15 KMWM 231015Z AUTO 00000KT 4SM -SN OVC008 M01/M01 A3020 RMK AO2
 
KFRM - Fairmont Muni, Minnesota, USA
Distance from station: ENE 41mi, 66km
Updated: Fri, 10/23/2020 5:03am CDT
Overcast
Overcast
 Wind from NNW
Wind: NNW 18 mph , 30 km/h
Temperature: 34°F , 1°C
Wind Chill: 23°F , -5°C
Dew Point: 32°F , 0°C
Humidity: 93%
Barometer: 30.17 inHg , 1021.7 hPa
Clouds: Overcast
Visibility: 10 miles , 16 km
Cloud details: Overcast 800 ft
2020/10/23 10:03 KFRM 231003Z AUTO 34016KT 10SM OVC008 01/00 A3017 RMK AO2 FZRANO
KCKP - Cherokee, Iowa, USA
Distance from station: SSW 49mi, 79km
Updated: Fri, 10/23/2020 5:15am CDT
Overcast
Overcast
 Wind from N
Wind: N 14 mph , 22 km/h
Temperature: 34°F , 1°C
Wind Chill: 25°F , -4°C
Dew Point: 32°F , 0°C
Humidity: 93%
Barometer: 30.22 inHg , 1023.4 hPa
Clouds: Overcast
Visibility: 10 miles , 16 km
Cloud details: Overcast 1300 ft
2020/10/23 10:15 KCKP 231015Z AUTO 35012KT 10SM OVC013 01/00 A3022 RMK AO2 T00100001
 
KAXA - Algona, Iowa, USA
Distance from station: ESE 49mi, 80km
Updated: Fri, 10/23/2020 5:15am CDT
Overcast
Overcast
 Wind from N
Wind: N 17 mph , 28 km/h, Gust: 25 mph , 41 km/h
Temperature: 34°F , 1°C
Wind Chill: 23°F , -5°C
Dew Point: 34°F , 1°C
Humidity: 100%
Barometer: 30.12 inHg , 1020 hPa
Clouds: Overcast
Visibility: 10 miles , 16 km
Cloud details: Overcast 800 ft
2020/10/23 10:15 KAXA 231015Z AUTO 36015G22KT 10SM OVC008 01/01 A3012 RMK A01